Time;durP1;ratioP1;P1;durP2;ratioP2;P2;SDS_P1;SDS_P2;PMS_P1;PMS_P2;Temp;Humidity;BMP_temperature;BMP_pressure;BME280_temperature;BME280_humidity;BME280_pressure;Samples;Min_cycle;Max_cycle;Signal;HPM_P1;HPM_P2
2022/12/03 00:01:35;;;;;;;100.60;47.35;;;;;;;4.93;74.64;95179.20;1801507;79;21498;-50
2022/12/03 00:04:02;;;;;;;102.40;49.70;;;;;;;4.96;74.34;95174.31;1802812;78;20991;-50
2022/12/03 00:06:30;;;;;;;100.20;49.75;;;;;;;4.95;74.58;95177.45;1782189;79;20954;-49
2022/12/03 04:09:51;;;;;;;51.48;27.45;;;;;;;3.08;84.50;95255.21;1809372;78;20985;-47
2022/12/03 04:15:04;;;;;;;70.80;36.30;;;;;;;3.13;84.80;95260.26;1793862;78;20986;-47
2022/12/03 04:17:31;;;;;;;79.45;38.70;;;;;;;3.25;85.13;95261.25;1806639;78;21013;-47
2022/12/03 04:19:58;;;;;;;73.72;38.00;;;;;;;3.35;84.77;95264.53;1793241;78;21006;-47
2022/12/03 04:22:39;;;;;;;64.77;33.85;;;;;;;3.39;84.85;95267.45;1793380;78;21093;-47
2022/12/03 04:30:38;;;;;;;65.30;32.65;;;;;;;3.57;84.12;95262.22;1801947;78;21464;-47
2022/12/03 04:35:50;;;;;;;58.10;30.72;;;;;;;3.72;83.89;95262.98;1798822;78;20946;-47
2022/12/03 04:38:17;;;;;;;54.08;28.87;;;;;;;3.82;83.85;95257.52;1788067;78;21143;-46
2022/12/03 04:43:32;;;;;;;44.55;27.40;;;;;;;4.04;83.46;95267.19;1786493;79;20971;-48
2022/12/03 04:45:59;;;;;;;44.95;25.05;;;;;;;4.18;82.91;95265.00;1733437;82;21136;-46
2022/12/03 04:48:26;;;;;;;51.13;27.45;;;;;;;4.23;81.89;95276.28;1725300;82;21603;-48
2022/12/03 04:50:53;;;;;;;54.03;30.90;;;;;;;4.19;81.83;95272.00;1733280;82;21266;-49
2022/12/03 04:53:20;;;;;;;52.67;28.23;;;;;;;4.12;81.44;95271.47;1728042;82;20998;-47
2022/12/03 04:55:46;;;;;;;64.05;35.73;;;;;;;4.11;81.59;95275.36;1722397;82;21025;-49
2022/12/03 04:58:13;;;;;;;76.20;40.17;;;;;;;4.05;81.32;95272.06;1723699;82;21567;-48
2022/12/03 05:00:39;;;;;;;76.50;39.83;;;;;;;3.97;81.27;95278.10;1733492;82;21013;-48
2022/12/03 05:03:06;;;;;;;74.40;39.83;;;;;;;3.87;81.15;95276.16;1732606;82;21324;-48
2022/12/03 05:05:33;;;;;;;64.95;33.13;;;;;;;3.83;81.56;95275.39;1727405;82;21110;-48
2022/12/03 05:07:59;;;;;;;57.95;32.78;;;;;;;3.89;82.17;95268.37;1713284;82;21081;-48
2022/12/03 05:10:26;;;;;;;53.85;29.67;;;;;;;4.04;81.90;95266.42;1733390;82;21550;-48
2022/12/03 05:12:53;;;;;;;51.98;27.27;;;;;;;4.06;81.55;95270.29;1733888;82;21037;-47
2022/12/03 05:15:19;;;;;;;47.48;26.48;;;;;;;4.02;81.18;95272.25;1696285;82;21241;-48
2022/12/03 05:17:46;;;;;;;52.73;28.80;;;;;;;3.99;81.23;95266.80;1716804;82;21174;-49
2022/12/03 05:22:58;;;;;;;53.92;28.23;;;;;;;3.95;81.10;95276.93;1718419;82;20989;-47
2022/12/03 05:25:25;;;;;;;60.43;32.00;;;;;;;3.94;81.23;95274.80;1730197;82;21068;-48
2022/12/03 05:27:52;;;;;;;52.90;28.25;;;;;;;3.97;81.32;95274.02;1732951;82;21263;-49
2022/12/03 05:30:18;;;;;;;41.05;25.20;;;;;;;4.11;81.94;95278.08;1730751;82;21049;-48
2022/12/03 05:32:45;;;;;;;45.67;25.35;;;;;;;4.26;81.21;95278.20;1721058;81;21068;-49
2022/12/03 05:35:11;;;;;;;42.73;24.23;;;;;;;4.31;81.00;95276.47;1722515;82;20982;-49
2022/12/03 05:37:38;;;;;;;40.08;23.00;;;;;;;4.39;80.52;95284.03;1728239;82;20977;-49
2022/12/03 05:40:06;;;;;;;41.00;23.60;;;;;;;4.40;80.17;95289.06;1722351;82;21280;-48
2022/12/03 05:45:28;;;;;;;41.83;23.75;;;;;;;4.46;79.98;95290.20;1805256;79;21438;-48
2022/12/03 05:47:56;;;;;;;47.83;27.55;;;;;;;4.46;79.63;95294.89;1745534;81;21013;-48
2022/12/03 05:50:25;;;;;;;48.38;25.62;;;;;;;4.54;79.93;95295.83;1747808;81;21035;-48
2022/12/03 05:52:51;;;;;;;47.93;27.15;;;;;;;4.66;79.40;95295.41;1737366;81;21244;-48
2022/12/03 05:55:18;;;;;;;50.38;28.05;;;;;;;4.73;79.12;95302.17;1744301;80;21533;-49
2022/12/03 05:57:45;;;;;;;41.25;24.32;;;;;;;4.75;78.23;95305.28;1748573;81;20965;-48
2022/12/03 06:00:16;;;;;;;34.50;22.55;;;;;;;4.63;77.82;95308.43;1748365;81;21013;-48
2022/12/03 06:02:42;;;;;;;32.03;19.75;;;;;;;4.50;77.77;95315.50;1744689;81;20985;-48
2022/12/03 06:05:09;;;;;;;30.27;20.15;;;;;;;4.40;77.44;95312.22;1731765;82;21268;-49
2022/12/03 06:07:36;;;;;;;35.80;22.10;;;;;;;4.25;77.72;95310.70;1746870;81;21099;-48
2022/12/03 06:10:08;;;;;;;37.08;23.18;;;;;;;4.15;77.66;95308.79;1748766;81;21052;-49
2022/12/03 06:12:35;;;;;;;38.45;23.22;;;;;;;4.10;78.16;95309.77;1752085;81;22366;-48
2022/12/03 06:15:02;;;;;;;41.18;24.80;;;;;;;4.09;78.18;95317.74;1748968;81;21152;-47
2022/12/03 06:17:29;;;;;;;44.00;24.60;;;;;;;4.09;78.40;95315.78;1750110;81;21984;-48
2022/12/03 06:19:56;;;;;;;37.73;23.77;;;;;;;4.11;78.35;95312.11;1744399;81;21564;-49
2022/12/03 06:22:22;;;;;;;37.15;23.20;;;;;;;4.15;78.45;95321.05;1748269;81;21505;-47
2022/12/03 06:24:49;;;;;;;35.83;22.90;;;;;;;4.18;78.40;95322.98;1740587;80;21152;-47
2022/12/03 06:27:16;;;;;;;43.58;24.10;;;;;;;4.16;78.50;95318.51;1742752;80;21118;-49
2022/12/03 06:29:43;;;;;;;60.35;33.78;;;;;;;4.16;78.81;95321.80;1729889;81;21910;-50
2022/12/03 06:32:10;;;;;;;53.05;30.97;;;;;;;4.27;79.15;95327.41;1710950;80;20985;-51
2022/12/03 06:34:36;;;;;;;50.58;27.93;;;;;;;4.34;79.03;95322.54;1725023;80;21576;-51
2022/12/03 06:37:03;;;;;;;54.10;31.77;;;;;;;4.44;78.72;95329.31;1744632;81;21569;-49
2022/12/03 06:39:29;;;;;;;48.85;29.00;;;;;;;4.43;78.17;95326.41;1739951;81;21140;-49
2022/12/03 06:41:56;;;;;;;49.18;28.40;;;;;;;4.41;78.12;95326.63;1735404;82;21241;-49
2022/12/03 06:44:23;;;;;;;52.58;29.42;;;;;;;4.39;78.23;95327.00;1743055;82;21358;-49
2022/12/03 06:46:49;;;;;;;46.92;27.07;;;;;;;4.52;78.57;95332.23;1788620;78;21124;-51
2022/12/03 06:49:16;;;;;;;42.65;25.08;;;;;;;4.69;78.45;95327.30;1774871;78;21101;-49
2022/12/03 06:51:43;;;;;;;40.58;24.37;;;;;;;4.81;77.79;95323.36;1753892;79;20986;-50
2022/12/03 06:54:11;;;;;;;41.73;24.95;;;;;;;4.88;77.77;95324.11;1755834;79;21855;-50
2022/12/03 06:56:37;;;;;;;38.02;22.62;;;;;;;4.96;77.24;95320.17;1760499;79;20981;-51
2022/12/03 06:59:04;;;;;;;55.43;31.50;;;;;;;4.99;77.02;95330.27;1754058;81;21030;-50
2022/12/03 07:01:31;;;;;;;60.05;34.00;;;;;;;5.06;77.17;95319.34;1765982;80;21010;-51
2022/12/03 07:03:57;;;;;;;53.48;29.30;;;;;;;5.12;76.42;95320.48;1776719;79;21103;-49
2022/12/03 07:06:25;;;;;;;46.73;27.73;;;;;;;5.08;76.38;95325.17;1742553;79;21204;-50
2022/12/03 07:08:51;;;;;;;49.35;27.37;;;;;;;5.08;76.67;95321.66;1768248;80;21052;-49
2022/12/03 07:11:30;;;;;;;48.48;26.87;;;;;;;5.04;76.32;95322.27;1768509;80;20982;-52
2022/12/03 07:14:01;;;;;;;47.05;28.30;;;;;;;4.98;76.78;95321.91;1770442;80;20991;-50
2022/12/03 07:16:28;;;;;;;53.30;30.10;;;;;;;4.99;76.60;95325.42;1753070;81;21025;-51
2022/12/03 07:18:56;;;;;;;44.33;24.57;;;;;;;4.85;76.41;95315.37;1739444;80;21121;-50
2022/12/03 07:21:22;;;;;;;47.62;26.15;;;;;;;4.69;76.60;95321.86;1721319;80;21014;-51
2022/12/03 07:23:49;;;;;;;37.73;22.37;;;;;;;4.61;77.03;95321.67;1733754;81;21018;-53
2022/12/03 07:26:16;;;;;;;40.50;22.65;;;;;;;4.58;77.01;95320.34;1751243;80;21074;-50
2022/12/03 07:28:45;;;;;;;41.13;22.62;;;;;;;4.45;76.96;95325.42;1746037;80;21552;-50
2022/12/03 07:31:12;;;;;;;41.65;24.05;;;;;;;4.36;77.44;95328.37;1748530;80;21266;-51
2022/12/03 07:33:39;;;;;;;39.18;21.17;;;;;;;4.42;78.08;95328.94;1739935;80;21273;-51
2022/12/03 07:36:07;;;;;;;53.83;31.57;;;;;;;4.51;77.79;95335.34;1725513;81;21505;-50
2022/12/03 07:38:34;;;;;;;62.03;33.92;;;;;;;4.47;77.53;95334.01;1752283;79;21540;-52
2022/12/03 07:41:00;;;;;;;46.45;27.77;;;;;;;4.43;78.23;95337.30;1730641;80;21252;-51
2022/12/03 07:43:27;;;;;;;44.15;26.40;;;;;;;4.57;78.77;95334.55;1750317;80;21394;-52
2022/12/03 07:45:54;;;;;;;38.98;25.37;;;;;;;4.74;78.50;95326.89;1762801;80;22140;-51
2022/12/03 07:48:21;;;;;;;41.53;25.48;;;;;;;4.87;78.12;95329.95;1724483;81;21058;-50
2022/12/03 07:50:48;;;;;;;36.90;23.05;;;;;;;4.95;78.26;95329.52;1744726;81;21011;-51
2022/12/03 07:53:15;;;;;;;40.10;23.52;;;;;;;5.05;77.76;95329.28;1742401;80;21030;-50
2022/12/03 07:55:42;;;;;;;40.30;23.00;;;;;;;5.04;76.93;95331.81;1748879;80;22060;-52
2022/12/03 07:58:09;;;;;;;46.40;25.48;;;;;;;4.89;76.62;95334.41;1716336;80;21108;-52
2022/12/03 08:00:36;;;;;;;57.58;28.80;;;;;;;4.75;76.69;95332.53;1727918;81;21036;-51
2022/12/03 08:03:02;;;;;;;49.60;27.48;;;;;;;4.66;77.16;95337.64;1752832;80;21078;-52
2022/12/03 08:05:29;;;;;;;43.85;25.02;;;;;;;4.64;77.50;95341.31;1728856;80;21512;-49
2022/12/03 08:07:56;;;;;;;44.90;25.40;;;;;;;4.67;77.57;95334.31;1753004;80;21509;-52
2022/12/03 08:10:24;;;;;;;43.92;25.05;;;;;;;4.64;77.32;95338.59;1749581;80;21427;-51
2022/12/03 08:12:52;;;;;;;42.88;25.37;;;;;;;4.60;77.47;95338.44;1756649;79;21025;-51
2022/12/03 08:15:24;;;;;;;38.85;22.70;;;;;;;4.60;77.51;95340.56;1798951;79;21081;-54
2022/12/03 08:17:59;;;;;;;34.55;21.37;;;;;;;4.62;77.55;95343.66;1782421;78;22384;-50
2022/12/03 08:20:32;;;;;;;30.35;19.80;;;;;;;4.59;77.43;95339.01;1775349;78;21711;-50
2022/12/03 08:22:59;;;;;;;34.75;23.02;;;;;;;4.62;77.54;95340.94;1772202;78;21025;-51
2022/12/03 08:25:31;;;;;;;38.98;24.15;;;;;;;4.63;77.47;95339.01;1772333;79;21529;-49
2022/12/03 08:28:17;;;;;;;56.60;28.93;;;;;;;4.68;77.44;95350.28;1777221;78;21533;-52
2022/12/03 08:31:19;;;;;;;69.75;33.23;;;;;;;4.80;77.27;95344.98;1763022;79;21408;-50
2022/12/03 08:33:48;;;;;;;50.45;27.15;;;;;;;4.79;77.28;95340.70;1742317;79;21267;-50
2022/12/03 08:36:27;;;;;;;48.30;27.00;;;;;;;4.82;77.21;95342.03;1762885;79;20946;-50
2022/12/03 08:39:03;;;;;;;41.75;22.87;;;;;;;4.89;77.35;95344.74;1789167;78;20986;-53
2022/12/03 08:44:31;;;;;;;36.50;21.62;;;;;;;5.14;76.83;95343.27;1762911;79;21044;-51
2022/12/03 08:47:19;;;;;;;40.05;22.05;;;;;;;5.23;76.82;95332.11;1768884;80;21272;-51
2022/12/03 08:49:54;;;;;;;65.30;39.03;;;;;;;5.29;76.62;95339.48;1773792;79;21139;-51
2022/12/03 08:52:24;;;;;;;42.93;25.82;;;;;;;5.33;76.64;95331.26;1783638;79;21541;-52
2022/12/03 08:54:53;;;;;;;40.40;24.05;;;;;;;5.53;76.43;95333.66;1765936;80;21494;-52
2022/12/03 08:57:29;;;;;;;57.38;30.95;;;;;;;5.55;75.60;95329.36;1767871;79;20966;-53
2022/12/03 09:00:18;;;;;;;85.10;47.23;;;;;;;5.50;75.21;95328.43;1743598;81;21241;-49
2022/12/03 09:02:49;;;;;;;61.83;31.75;;;;;;;5.37;75.30;95324.61;1747669;80;21544;-51
2022/12/03 09:05:19;;;;;;;51.98;30.02;;;;;;;5.29;75.78;95323.69;1784849;78;21497;-52
2022/12/03 09:07:46;;;;;;;53.10;28.77;;;;;;;5.32;76.27;95324.25;1800298;79;21178;-52
2022/12/03 09:10:13;;;;;;;53.75;29.15;;;;;;;5.40;76.24;95322.45;1783188;79;21025;-52
2022/12/03 09:12:40;;;;;;;49.70;29.45;;;;;;;5.54;75.90;95317.47;1764119;79;21577;-51
2022/12/03 09:15:08;;;;;;;53.38;32.00;;;;;;;5.63;75.85;95319.17;1763037;79;21600;-52
2022/12/03 09:17:38;;;;;;;45.73;27.37;;;;;;;5.70;75.44;95315.02;1723518;80;21022;-51
2022/12/03 09:20:10;;;;;;;47.05;28.07;;;;;;;5.69;75.09;95318.92;1726977;82;21140;-50
2022/12/03 09:22:37;;;;;;;44.50;27.22;;;;;;;5.72;75.42;95322.21;1742515;81;21097;-50
2022/12/03 09:25:06;;;;;;;54.85;32.70;;;;;;;5.80;75.29;95314.20;1733018;80;21257;-50
2022/12/03 09:27:32;;;;;;;55.65;32.65;;;;;;;5.79;75.25;95318.87;1727318;82;21014;-50
2022/12/03 09:29:59;;;;;;;59.83;33.85;;;;;;;5.94;75.84;95319.55;1751843;79;21538;-51
2022/12/03 09:32:26;;;;;;;62.13;35.00;;;;;;;6.08;74.99;95327.59;1772343;80;21060;-48
2022/12/03 09:34:52;;;;;;;69.80;39.78;;;;;;;6.08;74.54;95321.55;1736421;81;21124;-50
2022/12/03 09:37:20;;;;;;;64.97;36.28;;;;;;;6.05;74.98;95317.48;1724380;81;21844;-51
2022/12/03 09:40:01;;;;;;;45.28;28.35;;;;;;;6.08;74.46;95322.92;1723925;81;21152;-49
2022/12/03 09:42:40;;;;;;;48.65;27.65;;;;;;;5.99;74.28;95321.84;1723494;81;21165;-48
2022/12/03 09:45:13;;;;;;;42.03;25.15;;;;;;;5.88;74.28;95321.93;1732075;80;21080;-52
2022/12/03 09:47:44;;;;;;;37.38;21.75;;;;;;;5.82;74.94;95319.42;1690104;82;21604;-51
2022/12/03 09:50:21;;;;;;;35.90;21.15;;;;;;;5.81;74.71;95318.48;1676297;83;21246;-49
2022/12/03 09:52:49;;;;;;;34.65;19.87;;;;;;;5.72;75.24;95321.63;1686472;83;21137;-51
2022/12/03 09:55:21;;;;;;;35.75;21.52;;;;;;;5.83;75.06;95319.61;1679210;81;21072;-51
